sensor_id;sensor_type;location;lat;lon;timestamp;pressure;altitude;pressure_sealevel;temperature;humidity
6136;BME280;24008;42.664;23.372;2023-06-22T00:01:11;95189.31;;;18.64;84.71
6136;BME280;24008;42.664;23.372;2023-06-22T00:03:38;95183.66;;;18.60;84.24
6136;BME280;24008;42.664;23.372;2023-06-22T00:06:04;95185.00;;;18.56;84.33
6136;BME280;24008;42.664;23.372;2023-06-22T00:08:31;95185.34;;;18.53;84.64
6136;BME280;24008;42.664;23.372;2023-06-22T00:10:59;95188.13;;;18.52;84.93
6136;BME280;24008;42.664;23.372;2023-06-22T00:13:26;95191.50;;;18.52;85.13
6136;BME280;24008;42.664;23.372;2023-06-22T00:15:53;95139.63;;;18.16;85.45
6136;BME280;24008;42.664;23.372;2023-06-22T00:18:20;95173.63;;;18.28;85.75
6136;BME280;24008;42.664;23.372;2023-06-22T00:20:46;95183.91;;;18.21;86.50
6136;BME280;24008;42.664;23.372;2023-06-22T00:23:13;95116.31;;;17.72;86.71
6136;BME280;24008;42.664;23.372;2023-06-22T00:25:42;95107.91;;;17.70;86.91
6136;BME280;24008;42.664;23.372;2023-06-22T00:28:11;95172.81;;;17.98;86.40
6136;BME280;24008;42.664;23.372;2023-06-22T00:30:38;95157.16;;;17.91;85.86
6136;BME280;24008;42.664;23.372;2023-06-22T00:33:04;95102.75;;;17.47;85.11
6136;BME280;24008;42.664;23.372;2023-06-22T00:35:33;95145.25;;;17.68;84.99
6136;BME280;24008;42.664;23.372;2023-06-22T00:38:00;95162.47;;;17.75;85.06
6136;BME280;24008;42.664;23.372;2023-06-22T00:40:29;95147.38;;;17.64;85.17
6136;BME280;24008;42.664;23.372;2023-06-22T00:42:56;95168.09;;;17.79;85.18
6136;BME280;24008;42.664;23.372;2023-06-22T00:45:25;95122.84;;;17.60;85.24
6136;BME280;24008;42.664;23.372;2023-06-22T00:47:53;95155.28;;;17.85;85.48
6136;BME280;24008;42.664;23.372;2023-06-22T00:50:21;95153.69;;;17.84;86.40
6136;BME280;24008;42.664;23.372;2023-06-22T00:52:51;95160.50;;;17.77;86.73
6136;BME280;24008;42.664;23.372;2023-06-22T00:55:19;95140.75;;;17.61;86.61
6136;BME280;24008;42.664;23.372;2023-06-22T00:57:47;95112.53;;;17.52;85.91
6136;BME280;24008;42.664;23.372;2023-06-22T01:00:15;95125.13;;;17.78;85.54
6136;BME280;24008;42.664;23.372;2023-06-22T01:02:44;95133.63;;;17.86;85.02
6136;BME280;24008;42.664;23.372;2023-06-22T01:05:12;95122.38;;;17.79;84.65
6136;BME280;24008;42.664;23.372;2023-06-22T01:07:42;95164.84;;;17.99;84.67
6136;BME280;24008;42.664;23.372;2023-06-22T01:10:16;95162.88;;;18.02;85.63
6136;BME280;24008;42.664;23.372;2023-06-22T01:12:49;95134.47;;;17.79;86.16
6136;BME280;24008;42.664;23.372;2023-06-22T01:15:21;95165.91;;;17.90;86.34
6136;BME280;24008;42.664;23.372;2023-06-22T01:17:52;95064.97;;;17.23;86.34
6136;BME280;24008;42.664;23.372;2023-06-22T01:20:20;95133.47;;;17.65;86.58
6136;BME280;24008;42.664;23.372;2023-06-22T01:23:01;95185.78;;;17.90;86.36
6136;BME280;24008;42.664;23.372;2023-06-22T01:25:37;95173.25;;;18.02;86.67
6136;BME280;24008;42.664;23.372;2023-06-22T01:28:23;95103.75;;;17.61;86.36
6136;BME280;24008;42.664;23.372;2023-06-22T01:30:53;95173.25;;;18.02;86.57
6136;BME280;24008;42.664;23.372;2023-06-22T01:33:29;95174.22;;;18.00;86.97
6136;BME280;24008;42.664;23.372;2023-06-22T01:35:59;95177.97;;;17.98;87.40
6136;BME280;24008;42.664;23.372;2023-06-22T01:38:28;95141.34;;;17.72;88.09
6136;BME280;24008;42.664;23.372;2023-06-22T01:40:56;95174.28;;;17.92;88.86
6136;BME280;24008;42.664;23.372;2023-06-22T01:43:24;95178.66;;;17.92;89.30
6136;BME280;24008;42.664;23.372;2023-06-22T01:45:53;95176.25;;;17.90;89.52
6136;BME280;24008;42.664;23.372;2023-06-22T01:48:21;95083.72;;;17.17;90.29
6136;BME280;24008;42.664;23.372;2023-06-22T01:50:48;95087.94;;;17.18;90.72
6136;BME280;24008;42.664;23.372;2023-06-22T01:53:15;95152.13;;;17.52;91.12
6136;BME280;24008;42.664;23.372;2023-06-22T01:55:42;95183.53;;;17.72;91.15
6136;BME280;24008;42.664;23.372;2023-06-22T01:58:09;95180.63;;;17.67;91.65
6136;BME280;24008;42.664;23.372;2023-06-22T02:00:37;95209.91;;;17.59;92.33
6136;BME280;24008;42.664;23.372;2023-06-22T02:03:10;95166.25;;;17.42;92.94
6136;BME280;24008;42.664;23.372;2023-06-22T02:05:39;95092.91;;;16.97;93.29
6136;BME280;24008;42.664;23.372;2023-06-22T02:08:13;95140.88;;;17.22;93.75
6136;BME280;24008;42.664;23.372;2023-06-22T02:10:44;95157.28;;;17.29;94.11
6136;BME280;24008;42.664;23.372;2023-06-22T02:13:13;95192.72;;;17.44;94.28
6136;BME280;24008;42.664;23.372;2023-06-22T02:15:41;95192.88;;;17.42;94.62
6136;BME280;24008;42.664;23.372;2023-06-22T02:18:10;95116.47;;;17.02;95.02
6136;BME280;24008;42.664;23.372;2023-06-22T02:20:37;95061.63;;;16.61;95.42
6136;BME280;24008;42.664;23.372;2023-06-22T02:23:05;95031.25;;;16.40;95.97
6136;BME280;24008;42.664;23.372;2023-06-22T02:25:32;95189.41;;;17.27;96.54
6136;BME280;24008;42.664;23.372;2023-06-22T02:27:59;95174.63;;;16.90;97.22
6136;BME280;24008;42.664;23.372;2023-06-22T02:30:26;95191.00;;;17.05;97.64
6136;BME280;24008;42.664;23.372;2023-06-22T02:32:53;95156.13;;;16.78;98.05
6136;BME280;24008;42.664;23.372;2023-06-22T02:35:25;95180.41;;;16.92;98.17
6136;BME280;24008;42.664;23.372;2023-06-22T02:37:52;94996.53;;;15.73;98.11
6136;BME280;24008;42.664;23.372;2023-06-22T02:40:19;94591.56;;;13.11;98.11
6136;BME280;24008;42.664;23.372;2023-06-22T02:42:46;95092.56;;;16.30;98.62
6136;BME280;24008;42.664;23.372;2023-06-22T02:45:13;95201.09;;;16.84;99.49
6136;BME280;24008;42.664;23.372;2023-06-22T02:47:40;95105.75;;;16.35;99.42
6136;BME280;24008;42.664;23.372;2023-06-22T02:50:07;95180.63;;;16.82;99.74
6136;BME280;24008;42.664;23.372;2023-06-22T02:52:35;94964.06;;;15.39;100.00
6136;BME280;24008;42.664;23.372;2023-06-22T02:55:05;95193.84;;;16.79;100.00
6136;BME280;24008;42.664;23.372;2023-06-22T02:57:33;95202.75;;;16.77;100.00
6136;BME280;24008;42.664;23.372;2023-06-22T03:00:03;95204.69;;;16.75;100.00
6136;BME280;24008;42.664;23.372;2023-06-22T03:02:40;95028.59;;;15.70;100.00
6136;BME280;24008;42.664;23.372;2023-06-22T03:05:07;95190.28;;;16.80;99.89
6136;BME280;24008;42.664;23.372;2023-06-22T03:07:41;95194.63;;;16.88;100.00
6136;BME280;24008;42.664;23.372;2023-06-22T03:10:08;95023.41;;;15.87;99.65
6136;BME280;24008;42.664;23.372;2023-06-22T03:12:36;95184.69;;;16.77;99.36
6136;BME280;24008;42.664;23.372;2023-06-22T03:15:05;95127.78;;;16.62;99.06
6136;BME280;24008;42.664;23.372;2023-06-22T03:17:32;95200.94;;;17.16;98.89
6136;BME280;24008;42.664;23.372;2023-06-22T03:19:59;95113.09;;;16.54;98.80
6136;BME280;24008;42.664;23.372;2023-06-22T03:22:26;95219.38;;;17.13;99.01
6136;BME280;24008;42.664;23.372;2023-06-22T03:24:54;95179.16;;;16.88;99.04
6136;BME280;24008;42.664;23.372;2023-06-22T03:27:21;95018.84;;;15.97;98.70
6136;BME280;24008;42.664;23.372;2023-06-22T03:29:48;95155.94;;;16.80;98.63
6136;BME280;24008;42.664;23.372;2023-06-22T03:32:15;95213.53;;;17.19;98.28
6136;BME280;24008;42.664;23.372;2023-06-22T03:34:41;95220.31;;;17.20;97.97
6136;BME280;24008;42.664;23.372;2023-06-22T03:37:13;95111.69;;;16.52;97.91
6136;BME280;24008;42.664;23.372;2023-06-22T03:39:40;95237.72;;;17.26;98.02
6136;BME280;24008;42.664;23.372;2023-06-22T03:42:08;95221.69;;;17.31;97.69
6136;BME280;24008;42.664;23.372;2023-06-22T03:44:35;95223.78;;;17.36;97.24
6136;BME280;24008;42.664;23.372;2023-06-22T03:47:03;95112.44;;;16.69;96.47
6136;BME280;24008;42.664;23.372;2023-06-22T03:49:32;95234.72;;;17.46;96.17
6136;BME280;24008;42.664;23.372;2023-06-22T03:52:00;95194.94;;;17.24;96.36
6136;BME280;24008;42.664;23.372;2023-06-22T03:54:28;95244.72;;;17.49;96.28
6136;BME280;24008;42.664;23.372;2023-06-22T03:56:57;95246.59;;;17.55;96.15
6136;BME280;24008;42.664;23.372;2023-06-22T03:59:25;95209.25;;;17.35;95.89
6136;BME280;24008;42.664;23.372;2023-06-22T04:01:52;95183.13;;;17.29;95.58
6136;BME280;24008;42.664;23.372;2023-06-22T04:04:19;95244.22;;;17.76;94.89
6136;BME280;24008;42.664;23.372;2023-06-22T04:06:46;95246.25;;;17.89;93.81
6136;BME280;24008;42.664;23.372;2023-06-22T04:09:12;95251.81;;;18.00;92.51
6136;BME280;24008;42.664;23.372;2023-06-22T04:11:39;95071.94;;;17.00;92.07
6136;BME280;24008;42.664;23.372;2023-06-22T04:14:06;95237.94;;;18.16;92.27
6136;BME280;24008;42.664;23.372;2023-06-22T04:16:34;95221.16;;;18.12;92.37
6136;BME280;24008;42.664;23.372;2023-06-22T04:19:01;95085.50;;;17.40;91.48
6136;BME280;24008;42.664;23.372;2023-06-22T04:21:28;95133.63;;;17.86;89.98
6136;BME280;24008;42.664;23.372;2023-06-22T04:23:55;95228.78;;;18.66;89.02
6136;BME280;24008;42.664;23.372;2023-06-22T04:26:21;95229.59;;;18.81;88.77
6136;BME280;24008;42.664;23.372;2023-06-22T04:28:48;95206.75;;;19.21;88.44
6136;BME280;24008;42.664;23.372;2023-06-22T04:31:17;95215.59;;;20.05;85.21
6136;BME280;24008;42.664;23.372;2023-06-22T04:33:46;95168.00;;;20.47;80.82
6136;BME280;24008;42.664;23.372;2023-06-22T04:36:12;95209.28;;;21.59;75.66
6136;BME280;24008;42.664;23.372;2023-06-22T04:38:40;95213.41;;;22.20;71.02
6136;BME280;24008;42.664;23.372;2023-06-22T04:41:08;95068.41;;;21.81;68.41
6136;BME280;24008;42.664;23.372;2023-06-22T04:43:39;95051.19;;;22.07;66.22
6136;BME280;24008;42.664;23.372;2023-06-22T04:46:06;95135.38;;;22.78;65.09
6136;BME280;24008;42.664;23.372;2023-06-22T04:48:33;95184.47;;;23.32;64.26
6136;BME280;24008;42.664;23.372;2023-06-22T04:51:01;95210.91;;;23.81;63.12
6136;BME280;24008;42.664;23.372;2023-06-22T04:53:30;94791.09;;;21.61;61.96
6136;BME280;24008;42.664;23.372;2023-06-22T04:55:57;95119.72;;;24.11;60.51
6136;BME280;24008;42.664;23.372;2023-06-22T04:58:23;95060.06;;;24.08;58.00
6136;BME280;24008;42.664;23.372;2023-06-22T05:00:52;94914.25;;;23.50;57.18
6136;BME280;24008;42.664;23.372;2023-06-22T05:03:24;95234.09;;;25.68;56.30
6136;BME280;24008;42.664;23.372;2023-06-22T05:05:52;95240.16;;;25.68;56.57
6136;BME280;24008;42.664;23.372;2023-06-22T05:08:20;95235.91;;;25.97;55.77
6136;BME280;24008;42.664;23.372;2023-06-22T05:10:52;95233.88;;;26.11;55.26
6136;BME280;24008;42.664;23.372;2023-06-22T05:13:18;95181.66;;;26.28;54.11
6136;BME280;24008;42.664;23.372;2023-06-22T05:15:47;95230.00;;;26.55;54.69
6136;BME280;24008;42.664;23.372;2023-06-22T05:18:13;95208.09;;;26.61;54.13
6136;BME280;24008;42.664;23.372;2023-06-22T05:20:41;95171.59;;;26.25;52.96
6136;BME280;24008;42.664;23.372;2023-06-22T05:23:08;95249.69;;;26.58;53.05
6136;BME280;24008;42.664;23.372;2023-06-22T05:25:36;94824.72;;;23.86;52.08
6136;BME280;24008;42.664;23.372;2023-06-22T05:28:03;95203.88;;;26.48;51.11
6136;BME280;24008;42.664;23.372;2023-06-22T05:30:36;95248.00;;;26.75;51.95
6136;BME280;24008;42.664;23.372;2023-06-22T05:33:03;95243.34;;;27.00;52.72
6136;BME280;24008;42.664;23.372;2023-06-22T05:35:29;95260.13;;;27.51;50.90
6136;BME280;24008;42.664;23.372;2023-06-22T05:37:56;94974.72;;;26.33;48.50
6136;BME280;24008;42.664;23.372;2023-06-22T05:40:23;95252.56;;;28.23;46.49
6136;BME280;24008;42.664;23.372;2023-06-22T05:42:51;95056.09;;;27.06;45.93
6136;BME280;24008;42.664;23.372;2023-06-22T05:45:18;95208.66;;;27.78;46.99
6136;BME280;24008;42.664;23.372;2023-06-22T05:47:45;95272.00;;;28.72;45.86
6136;BME280;24008;42.664;23.372;2023-06-22T05:50:12;95197.97;;;28.30;46.44
6136;BME280;24008;42.664;23.372;2023-06-22T05:52:38;95254.94;;;28.91;44.80
6136;BME280;24008;42.664;23.372;2023-06-22T05:55:06;95274.91;;;29.48;44.49
6136;BME280;24008;42.664;23.372;2023-06-22T05:57:47;95214.94;;;29.33;43.62
6136;BME280;24008;42.664;23.372;2023-06-22T06:00:17;95262.63;;;29.36;43.46
6136;BME280;24008;42.664;23.372;2023-06-22T06:02:50;95155.22;;;28.18;45.18
6136;BME280;24008;42.664;23.372;2023-06-22T06:05:29;95259.88;;;29.05;44.60
6136;BME280;24008;42.664;23.372;2023-06-22T06:07:55;95271.56;;;29.35;46.34
6136;BME280;24008;42.664;23.372;2023-06-22T06:10:22;95240.47;;;29.32;44.96
6136;BME280;24008;42.664;23.372;2023-06-22T06:12:49;95263.28;;;29.65;45.17
6136;BME280;24008;42.664;23.372;2023-06-22T06:15:18;95221.16;;;29.44;45.28
6136;BME280;24008;42.664;23.372;2023-06-22T06:17:48;95258.16;;;30.02;44.63
6136;BME280;24008;42.664;23.372;2023-06-22T06:20:15;95205.38;;;29.49;44.89
6136;BME280;24008;42.664;23.372;2023-06-22T06:22:42;95193.13;;;29.86;43.46
6136;BME280;24008;42.664;23.372;2023-06-22T06:25:09;95255.75;;;30.60;42.66
6136;BME280;24008;42.664;23.372;2023-06-22T06:27:42;95212.06;;;30.74;41.98
6136;BME280;24008;42.664;23.372;2023-06-22T06:30:10;95127.56;;;30.27;41.33
6136;BME280;24008;42.664;23.372;2023-06-22T06:32:39;95216.69;;;30.57;41.32
6136;BME280;24008;42.664;23.372;2023-06-22T06:35:07;95236.16;;;30.88;40.23
6136;BME280;24008;42.664;23.372;2023-06-22T06:37:35;95207.88;;;30.78;41.38
6136;BME280;24008;42.664;23.372;2023-06-22T06:40:03;95263.28;;;31.15;40.66
6136;BME280;24008;42.664;23.372;2023-06-22T06:42:33;95209.84;;;31.65;39.25
6136;BME280;24008;42.664;23.372;2023-06-22T06:45:00;95222.19;;;31.39;42.03
6136;BME280;24008;42.664;23.372;2023-06-22T06:47:27;95244.25;;;31.80;40.06
6136;BME280;24008;42.664;23.372;2023-06-22T06:49:55;95216.00;;;31.91;39.33
6136;BME280;24008;42.664;23.372;2023-06-22T06:52:22;95241.56;;;31.65;40.70
6136;BME280;24008;42.664;23.372;2023-06-22T06:54:48;95204.34;;;31.09;40.08
6136;BME280;24008;42.664;23.372;2023-06-22T06:57:17;95238.09;;;31.07;42.85
6136;BME280;24008;42.664;23.372;2023-06-22T06:59:44;95229.97;;;30.67;44.11
6136;BME280;24008;42.664;23.372;2023-06-22T07:02:10;95224.38;;;29.99;43.68
6136;BME280;24008;42.664;23.372;2023-06-22T07:04:37;95230.44;;;30.00;43.96
6136;BME280;24008;42.664;23.372;2023-06-22T07:07:05;95175.28;;;29.40;44.15
6136;BME280;24008;42.664;23.372;2023-06-22T07:09:32;95235.44;;;29.09;46.64
6136;BME280;24008;42.664;23.372;2023-06-22T07:11:59;95226.50;;;28.38;49.45
6136;BME280;24008;42.664;23.372;2023-06-22T07:14:26;95236.44;;;28.70;49.63
6136;BME280;24008;42.664;23.372;2023-06-22T07:16:53;95227.25;;;29.27;48.02
6136;BME280;24008;42.664;23.372;2023-06-22T07:19:24;95231.84;;;29.59;46.06
6136;BME280;24008;42.664;23.372;2023-06-22T07:21:51;95081.78;;;29.15;45.40
6136;BME280;24008;42.664;23.372;2023-06-22T07:24:20;95139.09;;;30.53;43.50
6136;BME280;24008;42.664;23.372;2023-06-22T07:26:47;95205.53;;;31.44;41.58
6136;BME280;24008;42.664;23.372;2023-06-22T07:29:15;95109.66;;;31.38;40.30
6136;BME280;24008;42.664;23.372;2023-06-22T07:31:42;95230.31;;;32.86;37.95
6136;BME280;24008;42.664;23.372;2023-06-22T07:34:09;95138.69;;;32.85;38.03
6136;BME280;24008;42.664;23.372;2023-06-22T07:36:38;95222.06;;;33.73;38.60
6136;BME280;24008;42.664;23.372;2023-06-22T07:39:07;95185.47;;;33.15;36.33
6136;BME280;24008;42.664;23.372;2023-06-22T07:41:35;95233.56;;;33.53;37.60
6136;BME280;24008;42.664;23.372;2023-06-22T07:44:02;95211.16;;;33.30;37.76
6136;BME280;24008;42.664;23.372;2023-06-22T07:46:29;95236.53;;;33.41;38.19
6136;BME280;24008;42.664;23.372;2023-06-22T07:48:56;94793.78;;;31.12;36.56
6136;BME280;24008;42.664;23.372;2023-06-22T07:51:23;95156.59;;;33.14;35.40
6136;BME280;24008;42.664;23.372;2023-06-22T07:53:49;95223.44;;;33.60;36.14
6136;BME280;24008;42.664;23.372;2023-06-22T07:56:16;95174.19;;;33.54;36.70
6136;BME280;24008;42.664;23.372;2023-06-22T07:58:46;95138.84;;;33.69;36.39
6136;BME280;24008;42.664;23.372;2023-06-22T08:01:14;95109.75;;;33.04;38.12
6136;BME280;24008;42.664;23.372;2023-06-22T08:03:41;95223.94;;;33.77;38.22
6136;BME280;24008;42.664;23.372;2023-06-22T08:06:09;95203.38;;;33.98;35.73
6136;BME280;24008;42.664;23.372;2023-06-22T08:08:36;95200.69;;;34.03;36.15
6136;BME280;24008;42.664;23.372;2023-06-22T08:11:03;95173.34;;;33.58;36.16
6136;BME280;24008;42.664;23.372;2023-06-22T08:13:31;95213.91;;;34.08;37.29
6136;BME280;24008;42.664;23.372;2023-06-22T08:15:59;95224.53;;;34.76;34.69
6136;BME280;24008;42.664;23.372;2023-06-22T08:18:26;95209.63;;;34.12;35.35
6136;BME280;24008;42.664;23.372;2023-06-22T08:20:52;95166.88;;;33.31;37.95
6136;BME280;24008;42.664;23.372;2023-06-22T08:23:19;95128.56;;;33.03;37.94
6136;BME280;24008;42.664;23.372;2023-06-22T08:25:46;95176.25;;;33.62;35.60
6136;BME280;24008;42.664;23.372;2023-06-22T08:28:13;95203.03;;;33.60;36.25
6136;BME280;24008;42.664;23.372;2023-06-22T08:30:40;95198.31;;;33.52;37.18
6136;BME280;24008;42.664;23.372;2023-06-22T08:33:08;95196.47;;;33.97;38.16
6136;BME280;24008;42.664;23.372;2023-06-22T08:35:35;95098.81;;;33.26;37.65
6136;BME280;24008;42.664;23.372;2023-06-22T08:38:02;95151.19;;;33.44;37.34
6136;BME280;24008;42.664;23.372;2023-06-22T08:40:29;95202.50;;;33.63;36.06
6136;BME280;24008;42.664;23.372;2023-06-22T08:42:56;95213.09;;;33.69;35.47
6136;BME280;24008;42.664;23.372;2023-06-22T08:45:23;95210.16;;;33.01;36.81
6136;BME280;24008;42.664;23.372;2023-06-22T08:47:49;95186.09;;;32.62;37.87
6136;BME280;24008;42.664;23.372;2023-06-22T08:50:18;95209.41;;;32.54;40.30
6136;BME280;24008;42.664;23.372;2023-06-22T08:52:45;95139.84;;;31.98;40.46
6136;BME280;24008;42.664;23.372;2023-06-22T08:55:11;95208.00;;;31.66;42.64
6136;BME280;24008;42.664;23.372;2023-06-22T08:57:39;95196.97;;;31.84;42.39
6136;BME280;24008;42.664;23.372;2023-06-22T09:00:08;95151.25;;;32.34;41.97
6136;BME280;24008;42.664;23.372;2023-06-22T09:02:44;95183.06;;;33.19;41.63
6136;BME280;24008;42.664;23.372;2023-06-22T09:05:11;95159.63;;;33.46;41.09
6136;BME280;24008;42.664;23.372;2023-06-22T09:07:39;95193.41;;;33.75;35.92
6136;BME280;24008;42.664;23.372;2023-06-22T09:10:06;95176.03;;;33.53;36.52
6136;BME280;24008;42.664;23.372;2023-06-22T09:12:33;95175.13;;;33.14;34.02
6136;BME280;24008;42.664;23.372;2023-06-22T09:15:02;95189.63;;;33.91;34.63
6136;BME280;24008;42.664;23.372;2023-06-22T09:17:29;95140.34;;;33.85;33.90
6136;BME280;24008;42.664;23.372;2023-06-22T09:19:56;95168.81;;;34.66;34.14
6136;BME280;24008;42.664;23.372;2023-06-22T09:22:23;95194.03;;;34.97;34.93
6136;BME280;24008;42.664;23.372;2023-06-22T09:24:55;95093.00;;;34.31;33.31
6136;BME280;24008;42.664;23.372;2023-06-22T09:27:22;95189.91;;;35.10;34.02
6136;BME280;24008;42.664;23.372;2023-06-22T09:29:49;95163.13;;;35.49;30.76
6136;BME280;24008;42.664;23.372;2023-06-22T09:32:16;95196.56;;;35.93;31.83
6136;BME280;24008;42.664;23.372;2023-06-22T09:34:42;95164.97;;;35.30;32.94
6136;BME280;24008;42.664;23.372;2023-06-22T09:37:09;95175.88;;;35.04;31.62
6136;BME280;24008;42.664;23.372;2023-06-22T09:39:36;95178.03;;;34.79;32.61
6136;BME280;24008;42.664;23.372;2023-06-22T09:42:05;95186.84;;;35.64;31.31
6136;BME280;24008;42.664;23.372;2023-06-22T09:44:32;95058.28;;;34.99;30.73
6136;BME280;24008;42.664;23.372;2023-06-22T09:46:59;95144.09;;;35.80;33.07
6136;BME280;24008;42.664;23.372;2023-06-22T09:49:26;95158.19;;;35.61;32.34
6136;BME280;24008;42.664;23.372;2023-06-22T09:51:53;95185.94;;;35.93;31.68
6136;BME280;24008;42.664;23.372;2023-06-22T09:54:20;95148.00;;;36.01;30.70
6136;BME280;24008;42.664;23.372;2023-06-22T09:56:47;95067.88;;;35.70;31.05
6136;BME280;24008;42.664;23.372;2023-06-22T09:59:15;95180.06;;;36.28;31.41
6136;BME280;24008;42.664;23.372;2023-06-22T10:01:42;95179.16;;;36.00;30.69
6136;BME280;24008;42.664;23.372;2023-06-22T10:04:09;95174.38;;;35.84;30.77
6136;BME280;24008;42.664;23.372;2023-06-22T10:06:36;95105.06;;;35.56;30.50
6136;BME280;24008;42.664;23.372;2023-06-22T10:09:06;95163.53;;;36.31;30.13
6136;BME280;24008;42.664;23.372;2023-06-22T10:11:33;95172.22;;;36.37;30.05
6136;BME280;24008;42.664;23.372;2023-06-22T10:14:00;95060.28;;;35.07;30.53
6136;BME280;24008;42.664;23.372;2023-06-22T10:16:32;95180.06;;;35.53;30.50
6136;BME280;24008;42.664;23.372;2023-06-22T10:19:01;95167.75;;;35.62;30.24
6136;BME280;24008;42.664;23.372;2023-06-22T10:21:28;95137.53;;;35.53;30.09
6136;BME280;24008;42.664;23.372;2023-06-22T10:23:54;95146.75;;;35.80;30.84
6136;BME280;24008;42.664;23.372;2023-06-22T10:26:21;95164.38;;;35.94;30.07
6136;BME280;24008;42.664;23.372;2023-06-22T10:28:48;95169.13;;;35.97;29.88
6136;BME280;24008;42.664;23.372;2023-06-22T10:31:15;95169.75;;;36.08;29.25
6136;BME280;24008;42.664;23.372;2023-06-22T10:33:43;95125.97;;;35.44;29.83
6136;BME280;24008;42.664;23.372;2023-06-22T10:36:10;95159.03;;;35.94;29.54
6136;BME280;24008;42.664;23.372;2023-06-22T10:38:37;95031.69;;;34.99;29.95
6136;BME280;24008;42.664;23.372;2023-06-22T10:41:04;95154.75;;;36.12;30.60
6136;BME280;24008;42.664;23.372;2023-06-22T10:43:31;95118.69;;;35.87;31.20
6136;BME280;24008;42.664;23.372;2023-06-22T10:45:57;95123.53;;;35.66;31.16
6136;BME280;24008;42.664;23.372;2023-06-22T10:48:24;94963.78;;;33.74;31.79
6136;BME280;24008;42.664;23.372;2023-06-22T10:50:52;95123.13;;;35.17;31.47
6136;BME280;24008;42.664;23.372;2023-06-22T10:53:20;95104.50;;;34.74;33.21
6136;BME280;24008;42.664;23.372;2023-06-22T10:55:46;95139.97;;;34.88;29.85
6136;BME280;24008;42.664;23.372;2023-06-22T10:58:13;95149.00;;;34.58;30.92
6136;BME280;24008;42.664;23.372;2023-06-22T11:00:40;95125.75;;;33.82;30.82
6136;BME280;24008;42.664;23.372;2023-06-22T11:03:07;95148.88;;;33.72;31.55
6136;BME280;24008;42.664;23.372;2023-06-22T11:05:35;95145.91;;;33.34;32.07
6136;BME280;24008;42.664;23.372;2023-06-22T11:08:03;95131.22;;;32.98;32.93
6136;BME280;24008;42.664;23.372;2023-06-22T11:10:30;95140.75;;;33.04;32.94
6136;BME280;24008;42.664;23.372;2023-06-22T11:12:57;95098.06;;;32.26;33.62
6136;BME280;24008;42.664;23.372;2023-06-22T11:15:24;95109.97;;;32.33;33.89
6136;BME280;24008;42.664;23.372;2023-06-22T11:17:51;95141.69;;;32.43;33.98
6136;BME280;24008;42.664;23.372;2023-06-22T11:20:17;95057.34;;;32.06;35.91
6136;BME280;24008;42.664;23.372;2023-06-22T11:22:45;95116.00;;;32.49;36.84
6136;BME280;24008;42.664;23.372;2023-06-22T11:25:13;95117.31;;;32.72;35.04
6136;BME280;24008;42.664;23.372;2023-06-22T11:27:40;95109.38;;;32.56;36.45
6136;BME280;24008;42.664;23.372;2023-06-22T11:30:08;95115.47;;;32.57;33.66
6136;BME280;24008;42.664;23.372;2023-06-22T11:32:35;95091.69;;;32.16;33.86
6136;BME280;24008;42.664;23.372;2023-06-22T11:35:02;95113.13;;;32.25;34.06
6136;BME280;24008;42.664;23.372;2023-06-22T11:37:29;95090.16;;;32.20;34.34
6136;BME280;24008;42.664;23.372;2023-06-22T11:39:55;95086.41;;;32.27;34.67
6136;BME280;24008;42.664;23.372;2023-06-22T11:42:25;95118.69;;;32.13;35.03
6136;BME280;24008;42.664;23.372;2023-06-22T11:44:52;95101.47;;;31.50;35.17
6136;BME280;24008;42.664;23.372;2023-06-22T11:47:19;95115.97;;;31.52;34.98
6136;BME280;24008;42.664;23.372;2023-06-22T11:49:45;95107.34;;;31.72;34.65
6136;BME280;24008;42.664;23.372;2023-06-22T11:52:12;95099.66;;;32.06;35.75
6136;BME280;24008;42.664;23.372;2023-06-22T11:54:39;95101.75;;;32.35;34.44
6136;BME280;24008;42.664;23.372;2023-06-22T11:57:06;95098.28;;;32.49;33.13
6136;BME280;24008;42.664;23.372;2023-06-22T11:59:34;95072.09;;;32.43;33.02
6136;BME280;24008;42.664;23.372;2023-06-22T12:02:01;95087.47;;;32.36;33.94
6136;BME280;24008;42.664;23.372;2023-06-22T12:04:29;95096.94;;;32.52;35.18
6136;BME280;24008;42.664;23.372;2023-06-22T12:06:56;95098.50;;;32.73;35.34
6136;BME280;24008;42.664;23.372;2023-06-22T12:09:23;95078.66;;;32.61;35.37
6136;BME280;24008;42.664;23.372;2023-06-22T12:11:50;95104.34;;;32.60;34.77
6136;BME280;24008;42.664;23.372;2023-06-22T12:14:17;95094.34;;;32.47;37.06
6136;BME280;24008;42.664;23.372;2023-06-22T12:16:45;95093.31;;;31.97;36.63
6136;BME280;24008;42.664;23.372;2023-06-22T12:19:12;95093.81;;;31.59;36.70
6136;BME280;24008;42.664;23.372;2023-06-22T12:21:39;95123.09;;;30.64;39.91
6136;BME280;24008;42.664;23.372;2023-06-22T12:24:06;95115.91;;;29.54;42.55
6136;BME280;24008;42.664;23.372;2023-06-22T12:26:33;95086.75;;;28.68;43.95
6136;BME280;24008;42.664;23.372;2023-06-22T12:28:59;95113.38;;;28.33;44.69
6136;BME280;24008;42.664;23.372;2023-06-22T12:31:26;95075.75;;;27.77;45.42
6136;BME280;24008;42.664;23.372;2023-06-22T12:33:54;95121.97;;;27.78;45.97
6136;BME280;24008;42.664;23.372;2023-06-22T12:36:21;95045.53;;;27.01;45.74
6136;BME280;24008;42.664;23.372;2023-06-22T12:38:49;95142.06;;;27.56;46.25
6136;BME280;24008;42.664;23.372;2023-06-22T12:41:17;94983.47;;;26.38;48.33
6136;BME280;24008;42.664;23.372;2023-06-22T12:43:44;94959.81;;;26.10;51.33
6136;BME280;24008;42.664;23.372;2023-06-22T12:46:10;95134.59;;;27.08;50.91
6136;BME280;24008;42.664;23.372;2023-06-22T12:48:37;95148.44;;;27.03;51.99
6136;BME280;24008;42.664;23.372;2023-06-22T12:51:09;95162.63;;;26.56;54.46
6136;BME280;24008;42.664;23.372;2023-06-22T12:53:35;95098.00;;;25.91;54.54
6136;BME280;24008;42.664;23.372;2023-06-22T12:56:03;95142.09;;;26.06;56.52
6136;BME280;24008;42.664;23.372;2023-06-22T12:58:29;95012.13;;;25.17;59.04
6136;BME280;24008;42.664;23.372;2023-06-22T13:00:56;95151.84;;;25.99;60.20
6136;BME280;24008;42.664;23.372;2023-06-22T13:03:23;95114.13;;;25.65;59.45